sensor_id;sensor_type;location;lat;lon;timestamp;pressure;altitude;pressure_sealevel;temperature;humidity
28448;BME280;15675;52.870;-1.416;2022-09-16T00:02:16;101048.44;;;11.08;100.00
28448;BME280;15675;52.870;-1.416;2022-09-16T00:04:42;101053.66;;;11.14;100.00
28448;BME280;15675;52.870;-1.416;2022-09-16T00:07:07;101052.00;;;11.25;100.00
28448;BME280;15675;52.870;-1.416;2022-09-16T00:09:33;101047.75;;;11.43;100.00
28448;BME280;15675;52.870;-1.416;2022-09-16T00:11:59;101041.69;;;11.44;100.00
28448;BME280;15675;52.870;-1.416;2022-09-16T00:14:24;101050.44;;;11.56;100.00
28448;BME280;15675;52.870;-1.416;2022-09-16T00:16:50;101053.97;;;11.68;100.00
28448;BME280;15675;52.870;-1.416;2022-09-16T00:19:15;101047.84;;;11.64;100.00
28448;BME280;15675;52.870;-1.416;2022-09-16T00:21:41;101050.41;;;11.47;100.00
28448;BME280;15675;52.870;-1.416;2022-09-16T00:24:09;101053.03;;;11.55;100.00
28448;BME280;15675;52.870;-1.416;2022-09-16T00:26:38;101061.47;;;11.20;100.00
28448;BME280;15675;52.870;-1.416;2022-09-16T00:29:04;101056.06;;;10.86;100.00
28448;BME280;15675;52.870;-1.416;2022-09-16T00:31:29;101058.47;;;10.64;100.00
28448;BME280;15675;52.870;-1.416;2022-09-16T00:33:55;101053.50;;;10.92;100.00
28448;BME280;15675;52.870;-1.416;2022-09-16T00:36:20;101061.44;;;11.11;100.00
28448;BME280;15675;52.870;-1.416;2022-09-16T00:38:49;101064.09;;;11.21;100.00
28448;BME280;15675;52.870;-1.416;2022-09-16T00:41:18;101066.59;;;11.08;100.00
28448;BME280;15675;52.870;-1.416;2022-09-16T00:44:05;101061.34;;;11.03;100.00
28448;BME280;15675;52.870;-1.416;2022-09-16T00:46:36;101057.84;;;10.92;100.00
28448;BME280;15675;52.870;-1.416;2022-09-16T00:49:18;101063.00;;;10.90;100.00
28448;BME280;15675;52.870;-1.416;2022-09-16T00:51:47;101059.66;;;11.03;100.00
28448;BME280;15675;52.870;-1.416;2022-09-16T00:54:17;101055.28;;;10.98;100.00
28448;BME280;15675;52.870;-1.416;2022-09-16T00:56:46;101059.72;;;11.16;100.00
28448;BME280;15675;52.870;-1.416;2022-09-16T01:01:45;101061.41;;;11.09;100.00
28448;BME280;15675;52.870;-1.416;2022-09-16T01:04:20;101072.63;;;11.00;100.00
28448;BME280;15675;52.870;-1.416;2022-09-16T01:06:47;101072.56;;;10.96;100.00
28448;BME280;15675;52.870;-1.416;2022-09-16T01:09:14;101067.44;;;11.02;100.00
28448;BME280;15675;52.870;-1.416;2022-09-16T01:11:40;101071.72;;;10.98;100.00
28448;BME280;15675;52.870;-1.416;2022-09-16T01:14:06;101078.72;;;11.09;100.00
28448;BME280;15675;52.870;-1.416;2022-09-16T01:25:31;101079.97;;;11.72;100.00
28448;BME280;15675;52.870;-1.416;2022-09-16T01:31:05;101086.81;;;11.56;100.00
28448;BME280;15675;52.870;-1.416;2022-09-16T01:36:18;101094.50;;;11.36;100.00
28448;BME280;15675;52.870;-1.416;2022-09-16T01:39:02;101090.94;;;11.19;100.00
28448;BME280;15675;52.870;-1.416;2022-09-16T01:44:32;101088.41;;;11.30;100.00
28448;BME280;15675;52.870;-1.416;2022-09-16T01:47:11;101089.31;;;11.38;100.00
28448;BME280;15675;52.870;-1.416;2022-09-16T01:50:03;101095.44;;;11.45;100.00
28448;BME280;15675;52.870;-1.416;2022-09-16T01:53:00;101092.94;;;11.60;100.00
28448;BME280;15675;52.870;-1.416;2022-09-16T01:56:02;101082.75;;;12.09;100.00
28448;BME280;15675;52.870;-1.416;2022-09-16T01:58:35;101089.66;;;12.00;100.00
28448;BME280;15675;52.870;-1.416;2022-09-16T02:01:10;101083.63;;;12.12;100.00
28448;BME280;15675;52.870;-1.416;2022-09-16T02:03:38;101084.56;;;12.35;100.00
28448;BME280;15675;52.870;-1.416;2022-09-16T02:06:13;101088.03;;;12.48;100.00
28448;BME280;15675;52.870;-1.416;2022-09-16T02:08:57;101081.13;;;12.52;100.00
28448;BME280;15675;52.870;-1.416;2022-09-16T02:11:24;101084.63;;;12.58;100.00
28448;BME280;15675;52.870;-1.416;2022-09-16T02:16:34;101084.53;;;12.21;100.00
28448;BME280;15675;52.870;-1.416;2022-09-16T02:19:05;101094.03;;;12.10;100.00
28448;BME280;15675;52.870;-1.416;2022-09-16T02:21:33;101087.94;;;12.03;100.00
28448;BME280;15675;52.870;-1.416;2022-09-16T02:24:04;101081.69;;;11.67;100.00
28448;BME280;15675;52.870;-1.416;2022-09-16T02:26:37;101080.69;;;11.44;100.00
28448;BME280;15675;52.870;-1.416;2022-09-16T02:29:18;101086.81;;;11.52;100.00
28448;BME280;15675;52.870;-1.416;2022-09-16T02:31:46;101094.44;;;11.27;100.00
28448;BME280;15675;52.870;-1.416;2022-09-16T02:34:15;101098.63;;;11.05;100.00
28448;BME280;15675;52.870;-1.416;2022-09-16T02:36:44;101097.66;;;10.91;100.00
28448;BME280;15675;52.870;-1.416;2022-09-16T02:39:15;101107.25;;;11.01;100.00
28448;BME280;15675;52.870;-1.416;2022-09-16T02:41:41;101109.97;;;11.16;100.00
28448;BME280;15675;52.870;-1.416;2022-09-16T02:44:08;101103.16;;;11.37;100.00
28448;BME280;15675;52.870;-1.416;2022-09-16T02:49:37;101103.59;;;12.16;100.00
28448;BME280;15675;52.870;-1.416;2022-09-16T02:58:03;101100.66;;;11.51;100.00
28448;BME280;15675;52.870;-1.416;2022-09-16T03:00:31;101099.91;;;11.69;100.00
28448;BME280;15675;52.870;-1.416;2022-09-16T03:02:57;101099.84;;;11.58;100.00
28448;BME280;15675;52.870;-1.416;2022-09-16T03:05:27;101098.03;;;11.45;100.00
28448;BME280;15675;52.870;-1.416;2022-09-16T03:07:53;101104.91;;;11.36;100.00
28448;BME280;15675;52.870;-1.416;2022-09-16T03:10:19;101095.22;;;11.12;100.00
28448;BME280;15675;52.870;-1.416;2022-09-16T03:12:55;101097.09;;;11.33;100.00
28448;BME280;15675;52.870;-1.416;2022-09-16T03:19:03;101085.38;;;12.14;100.00
28448;BME280;15675;52.870;-1.416;2022-09-16T03:21:15;101087.78;;;11.75;100.00
28448;BME280;15675;52.870;-1.416;2022-09-16T03:24:04;101085.78;;;11.25;100.00
28448;BME280;15675;52.870;-1.416;2022-09-16T03:26:39;101086.72;;;11.36;100.00
28448;BME280;15675;52.870;-1.416;2022-09-16T03:29:17;101087.66;;;11.49;100.00
28448;BME280;15675;52.870;-1.416;2022-09-16T03:31:57;101106.25;;;10.86;100.00
28448;BME280;15675;52.870;-1.416;2022-09-16T03:34:42;101115.53;;;10.61;100.00
28448;BME280;15675;52.870;-1.416;2022-09-16T03:37:13;101114.72;;;10.64;100.00
28448;BME280;15675;52.870;-1.416;2022-09-16T03:39:41;101106.28;;;10.91;100.00
28448;BME280;15675;52.870;-1.416;2022-09-16T03:42:08;101113.31;;;11.01;100.00
28448;BME280;15675;52.870;-1.416;2022-09-16T03:44:37;101102.84;;;10.91;100.00
28448;BME280;15675;52.870;-1.416;2022-09-16T03:47:05;101100.16;;;10.83;100.00
28448;BME280;15675;52.870;-1.416;2022-09-16T03:49:30;101108.50;;;10.46;100.00
28448;BME280;15675;52.870;-1.416;2022-09-16T03:51:57;101120.53;;;10.43;100.00
28448;BME280;15675;52.870;-1.416;2022-09-16T03:54:22;101114.56;;;10.48;100.00
28448;BME280;15675;52.870;-1.416;2022-09-16T03:56:48;101118.13;;;10.61;100.00
28448;BME280;15675;52.870;-1.416;2022-09-16T03:59:14;101106.28;;;10.91;100.00
28448;BME280;15675;52.870;-1.416;2022-09-16T04:01:40;101108.19;;;11.08;100.00
28448;BME280;15675;52.870;-1.416;2022-09-16T04:04:05;101105.56;;;11.08;100.00
28448;BME280;15675;52.870;-1.416;2022-09-16T04:06:31;101107.38;;;11.18;100.00
28448;BME280;15675;52.870;-1.416;2022-09-16T04:08:56;101107.56;;;11.46;100.00
28448;BME280;15675;52.870;-1.416;2022-09-16T04:11:23;101101.50;;;11.50;100.00
28448;BME280;15675;52.870;-1.416;2022-09-16T04:13:49;101107.63;;;11.58;100.00
28448;BME280;15675;52.870;-1.416;2022-09-16T04:16:19;101108.31;;;11.26;100.00
28448;BME280;15675;52.870;-1.416;2022-09-16T04:18:47;101107.53;;;11.41;100.00
28448;BME280;15675;52.870;-1.416;2022-09-16T04:21:13;101129.13;;;11.31;100.00
28448;BME280;15675;52.870;-1.416;2022-09-16T04:23:39;101126.50;;;11.25;100.00
28448;BME280;15675;52.870;-1.416;2022-09-16T04:26:05;101116.94;;;11.23;100.00
28448;BME280;15675;52.870;-1.416;2022-09-16T04:28:31;101120.38;;;11.19;100.00
28448;BME280;15675;52.870;-1.416;2022-09-16T04:31:02;101117.66;;;11.05;100.00
28448;BME280;15675;52.870;-1.416;2022-09-16T04:33:29;101121.09;;;11.01;100.00
28448;BME280;15675;52.870;-1.416;2022-09-16T04:38:33;101127.34;;;11.25;100.00
28448;BME280;15675;52.870;-1.416;2022-09-16T04:41:13;101127.56;;;11.57;100.00
28448;BME280;15675;52.870;-1.416;2022-09-16T04:43:39;101123.47;;;11.98;100.00
28448;BME280;15675;52.870;-1.416;2022-09-16T04:46:05;101127.56;;;11.53;100.00
28448;BME280;15675;52.870;-1.416;2022-09-16T04:48:32;101128.03;;;11.04;100.00
28448;BME280;15675;52.870;-1.416;2022-09-16T04:51:17;101130.34;;;10.70;100.00
28448;BME280;15675;52.870;-1.416;2022-09-16T04:53:44;101135.53;;;10.71;100.00
28448;BME280;15675;52.870;-1.416;2022-09-16T04:56:13;101141.47;;;10.58;100.00
28448;BME280;15675;52.870;-1.416;2022-09-16T04:58:48;101138.47;;;10.24;100.00
28448;BME280;15675;52.870;-1.416;2022-09-16T05:01:19;101141.88;;;10.18;100.00
28448;BME280;15675;52.870;-1.416;2022-09-16T05:03:47;101144.56;;;10.25;100.00
28448;BME280;15675;52.870;-1.416;2022-09-16T05:06:15;101147.31;;;10.39;100.00
28448;BME280;15675;52.870;-1.416;2022-09-16T05:08:41;101145.25;;;10.11;100.00
28448;BME280;15675;52.870;-1.416;2022-09-16T05:13:34;101150.84;;;10.45;100.00
28448;BME280;15675;52.870;-1.416;2022-09-16T05:16:05;101150.81;;;10.42;100.00
28448;BME280;15675;52.870;-1.416;2022-09-16T05:18:32;101153.22;;;10.28;100.00
28448;BME280;15675;52.870;-1.416;2022-09-16T05:20:59;101157.88;;;10.56;100.00
28448;BME280;15675;52.870;-1.416;2022-09-16T05:23:25;101155.25;;;10.51;100.00
28448;BME280;15675;52.870;-1.416;2022-09-16T05:25:51;101167.28;;;10.46;100.00
28448;BME280;15675;52.870;-1.416;2022-09-16T05:28:17;101168.25;;;10.54;100.00
28448;BME280;15675;52.870;-1.416;2022-09-16T05:30:42;101168.47;;;10.74;100.00
28448;BME280;15675;52.870;-1.416;2022-09-16T05:33:08;101163.88;;;10.48;100.00
28448;BME280;15675;52.870;-1.416;2022-09-16T05:35:34;101168.06;;;10.37;100.00
28448;BME280;15675;52.870;-1.416;2022-09-16T05:37:59;101177.31;;;10.16;100.00
28448;BME280;15675;52.870;-1.416;2022-09-16T05:40:25;101173.75;;;10.08;100.00
28448;BME280;15675;52.870;-1.416;2022-09-16T05:42:52;101172.13;;;10.16;100.00
28448;BME280;15675;52.870;-1.416;2022-09-16T05:45:17;101175.47;;;10.08;100.00
28448;BME280;15675;52.870;-1.416;2022-09-16T05:47:47;101185.28;;;10.30;100.00
28448;BME280;15675;52.870;-1.416;2022-09-16T05:50:13;101180.41;;;10.57;100.00
28448;BME280;15675;52.870;-1.416;2022-09-16T05:52:38;101183.75;;;10.48;100.00
28448;BME280;15675;52.870;-1.416;2022-09-16T05:55:04;101181.28;;;10.60;100.00
28448;BME280;15675;52.870;-1.416;2022-09-16T05:57:30;101179.84;;;10.88;100.00
28448;BME280;15675;52.870;-1.416;2022-09-16T05:59:55;101182.47;;;10.90;100.00
28448;BME280;15675;52.870;-1.416;2022-09-16T06:02:21;101178.31;;;11.06;100.00
28448;BME280;15675;52.870;-1.416;2022-09-16T06:04:46;101171.41;;;11.14;100.00
28448;BME280;15675;52.870;-1.416;2022-09-16T06:07:12;101186.09;;;11.04;100.00
28448;BME280;15675;52.870;-1.416;2022-09-16T06:09:37;101183.34;;;10.89;100.00
28448;BME280;15675;52.870;-1.416;2022-09-16T06:12:03;101186.81;;;10.91;100.00
28448;BME280;15675;52.870;-1.416;2022-09-16T06:14:28;101180.00;;;11.04;100.00
28448;BME280;15675;52.870;-1.416;2022-09-16T06:16:54;101189.66;;;11.19;100.00
28448;BME280;15675;52.870;-1.416;2022-09-16T06:19:19;101191.31;;;11.08;100.00
28448;BME280;15675;52.870;-1.416;2022-09-16T06:21:45;101178.38;;;11.15;100.00
28448;BME280;15675;52.870;-1.416;2022-09-16T06:24:14;101184.44;;;11.16;100.00
28448;BME280;15675;52.870;-1.416;2022-09-16T06:26:41;101190.84;;;11.60;100.00
28448;BME280;15675;52.870;-1.416;2022-09-16T06:29:08;101193.53;;;11.73;100.00
28448;BME280;15675;52.870;-1.416;2022-09-16T06:31:35;101208.75;;;11.26;100.00
28448;BME280;15675;52.870;-1.416;2022-09-16T06:34:01;101209.56;;;11.18;100.00
28448;BME280;15675;52.870;-1.416;2022-09-16T06:36:34;101213.91;;;11.18;100.00
28448;BME280;15675;52.870;-1.416;2022-09-16T06:39:01;101212.34;;;11.38;100.00
28448;BME280;15675;52.870;-1.416;2022-09-16T06:41:27;101218.44;;;11.42;100.00
28448;BME280;15675;52.870;-1.416;2022-09-16T06:43:53;101219.88;;;11.06;100.00
28448;BME280;15675;52.870;-1.416;2022-09-16T06:46:21;101221.84;;;11.35;100.00
28448;BME280;15675;52.870;-1.416;2022-09-16T06:48:49;101226.88;;;11.16;100.00
28448;BME280;15675;52.870;-1.416;2022-09-16T06:51:23;101234.66;;;11.13;100.00
28448;BME280;15675;52.870;-1.416;2022-09-16T06:53:50;101229.53;;;11.21;100.00
28448;BME280;15675;52.870;-1.416;2022-09-16T06:56:17;101228.66;;;11.20;100.00
28448;BME280;15675;52.870;-1.416;2022-09-16T06:58:45;101240.94;;;11.38;100.00
28448;BME280;15675;52.870;-1.416;2022-09-16T07:01:19;101240.72;;;11.17;100.00
28448;BME280;15675;52.870;-1.416;2022-09-16T07:03:47;101237.28;;;11.16;100.00
28448;BME280;15675;52.870;-1.416;2022-09-16T07:06:13;101244.94;;;11.02;100.00
28448;BME280;15675;52.870;-1.416;2022-09-16T07:08:40;101241.69;;;11.25;100.00
28448;BME280;15675;52.870;-1.416;2022-09-16T07:11:13;101241.88;;;11.47;100.00
28448;BME280;15675;52.870;-1.416;2022-09-16T07:13:39;101236.78;;;11.59;100.00
28448;BME280;15675;52.870;-1.416;2022-09-16T07:16:06;101236.97;;;11.87;100.00
28448;BME280;15675;52.870;-1.416;2022-09-16T07:18:33;101240.69;;;12.23;100.00
28448;BME280;15675;52.870;-1.416;2022-09-16T07:21:18;101239.66;;;11.96;100.00
28448;BME280;15675;52.870;-1.416;2022-09-16T07:23:45;101238.66;;;11.80;100.00
28448;BME280;15675;52.870;-1.416;2022-09-16T07:26:14;101249.91;;;11.74;100.00
28448;BME280;15675;52.870;-1.416;2022-09-16T07:28:41;101244.88;;;11.98;100.00
28448;BME280;15675;52.870;-1.416;2022-09-16T07:31:16;101249.94;;;11.81;100.00
28448;BME280;15675;52.870;-1.416;2022-09-16T07:33:44;101251.88;;;12.09;100.00
28448;BME280;15675;52.870;-1.416;2022-09-16T07:36:13;101256.31;;;12.24;100.00
28448;BME280;15675;52.870;-1.416;2022-09-16T07:38:39;101267.66;;;12.39;100.00
28448;BME280;15675;52.870;-1.416;2022-09-16T07:41:13;101266.81;;;12.45;100.00
28448;BME280;15675;52.870;-1.416;2022-09-16T07:43:40;101266.47;;;11.90;100.00
28448;BME280;15675;52.870;-1.416;2022-09-16T07:46:08;101270.88;;;11.95;100.00
28448;BME280;15675;52.870;-1.416;2022-09-16T07:48:35;101274.38;;;12.01;100.00
28448;BME280;15675;52.870;-1.416;2022-09-16T07:51:07;101268.44;;;12.21;99.61
28448;BME280;15675;52.870;-1.416;2022-09-16T07:53:33;101265.91;;;12.39;95.11
28448;BME280;15675;52.870;-1.416;2022-09-16T07:56:04;101265.84;;;12.24;95.11
28448;BME280;15675;52.870;-1.416;2022-09-16T07:58:29;101264.97;;;12.23;93.35
28448;BME280;15675;52.870;-1.416;2022-09-16T08:00:55;101266.84;;;12.49;92.56
28448;BME280;15675;52.870;-1.416;2022-09-16T08:03:21;101272.97;;;12.67;91.83
28448;BME280;15675;52.870;-1.416;2022-09-16T08:05:46;101279.00;;;12.52;89.87
28448;BME280;15675;52.870;-1.416;2022-09-16T08:08:12;101277.19;;;12.37;90.81
28448;BME280;15675;52.870;-1.416;2022-09-16T08:10:37;101285.72;;;12.11;90.84
28448;BME280;15675;52.870;-1.416;2022-09-16T08:13:04;101293.47;;;12.03;88.42
28448;BME280;15675;52.870;-1.416;2022-09-16T08:15:30;101290.19;;;12.34;87.01
28448;BME280;15675;52.870;-1.416;2022-09-16T08:17:55;101289.34;;;12.39;85.35
28448;BME280;15675;52.870;-1.416;2022-09-16T08:20:21;101288.59;;;12.64;84.77
28448;BME280;15675;52.870;-1.416;2022-09-16T08:22:46;101301.50;;;12.34;81.27
28448;BME280;15675;52.870;-1.416;2022-09-16T08:25:12;101307.75;;;12.76;81.46
28448;BME280;15675;52.870;-1.416;2022-09-16T08:27:37;101299.84;;;12.53;78.08
28448;BME280;15675;52.870;-1.416;2022-09-16T08:30:03;101301.75;;;13.01;77.98
28448;BME280;15675;52.870;-1.416;2022-09-16T08:32:29;101316.47;;;12.91;76.01
28448;BME280;15675;52.870;-1.416;2022-09-16T08:34:56;101315.56;;;12.73;74.56
28448;BME280;15675;52.870;-1.416;2022-09-16T08:37:21;101307.81;;;12.90;72.99
28448;BME280;15675;52.870;-1.416;2022-09-16T08:39:47;101306.97;;;13.04;72.86
28448;BME280;15675;52.870;-1.416;2022-09-16T08:45:03;101310.41;;;12.98;72.31
28448;BME280;15675;52.870;-1.416;2022-09-16T08:47:36;101315.72;;;13.29;72.50
28448;BME280;15675;52.870;-1.416;2022-09-16T08:50:13;101320.88;;;13.01;69.42
28448;BME280;15675;52.870;-1.416;2022-09-16T08:52:41;101319.13;;;13.02;68.15
28448;BME280;15675;52.870;-1.416;2022-09-16T08:55:16;101331.31;;;13.09;68.81
28448;BME280;15675;52.870;-1.416;2022-09-16T08:58:13;101324.34;;;13.03;67.80
28448;BME280;15675;52.870;-1.416;2022-09-16T09:00:38;101324.38;;;13.17;66.96
28448;BME280;15675;52.870;-1.416;2022-09-16T09:03:15;101323.53;;;13.30;67.51
28448;BME280;15675;52.870;-1.416;2022-09-16T09:05:56;101326.16;;;13.23;65.82
28448;BME280;15675;52.870;-1.416;2022-09-16T09:08:26;101331.34;;;13.26;65.25
28448;BME280;15675;52.870;-1.416;2022-09-16T09:11:16;101329.69;;;13.43;66.16
28448;BME280;15675;52.870;-1.416;2022-09-16T09:16:45;101325.31;;;13.39;63.27
28448;BME280;15675;52.870;-1.416;2022-09-16T09:19:22;101322.72;;;13.42;62.98
28448;BME280;15675;52.870;-1.416;2022-09-16T09:22:18;101327.97;;;13.52;63.48
28448;BME280;15675;52.870;-1.416;2022-09-16T09:27:48;101332.25;;;13.33;63.51
28448;BME280;15675;52.870;-1.416;2022-09-16T09:38:31;101347.00;;;13.21;63.71
28448;BME280;15675;52.870;-1.416;2022-09-16T09:41:08;101340.03;;;13.23;64.16
28448;BME280;15675;52.870;-1.416;2022-09-16T09:43:51;101334.06;;;13.80;63.61
28448;BME280;15675;52.870;-1.416;2022-09-16T09:46:34;101331.44;;;13.91;63.22
28448;BME280;15675;52.870;-1.416;2022-09-16T09:51:44;101317.53;;;14.06;61.81
28448;BME280;15675;52.870;-1.416;2022-09-16T09:54:24;101338.41;;;13.67;60.15
28448;BME280;15675;52.870;-1.416;2022-09-16T09:57:29;101327.94;;;14.13;60.07
28448;BME280;15675;52.870;-1.416;2022-09-16T10:02:30;101330.56;;;13.96;60.38
28448;BME280;15675;52.870;-1.416;2022-09-16T10:04:56;101333.13;;;14.29;60.19
28448;BME280;15675;52.870;-1.416;2022-09-16T10:07:23;101334.03;;;14.17;58.80
28448;BME280;15675;52.870;-1.416;2022-09-16T10:10:13;101329.69;;;14.11;58.64
28448;BME280;15675;52.870;-1.416;2022-09-16T10:12:39;101336.59;;;14.40;59.10
28448;BME280;15675;52.870;-1.416;2022-09-16T10:15:16;101334.00;;;14.39;57.49
28448;BME280;15675;52.870;-1.416;2022-09-16T10:17:50;101329.63;;;14.47;57.29
28448;BME280;15675;52.870;-1.416;2022-09-16T10:23:15;101337.47;;;14.41;57.65
28448;BME280;15675;52.870;-1.416;2022-09-16T10:25:41;101335.78;;;14.20;57.57
28448;BME280;15675;52.870;-1.416;2022-09-16T10:28:20;101341.00;;;13.92;57.85
28448;BME280;15675;52.870;-1.416;2022-09-16T10:30:48;101358.38;;;14.22;58.34
28448;BME280;15675;52.870;-1.416;2022-09-16T10:33:28;101343.63;;;14.20;57.12
28448;BME280;15675;52.870;-1.416;2022-09-16T10:36:06;101342.75;;;13.82;56.78
28448;BME280;15675;52.870;-1.416;2022-09-16T10:38:36;101347.97;;;13.82;57.17
28448;BME280;15675;52.870;-1.416;2022-09-16T10:41:15;101343.63;;;13.66;57.76
28448;BME280;15675;52.870;-1.416;2022-09-16T10:43:47;101339.28;;;13.74;56.98
28448;BME280;15675;52.870;-1.416;2022-09-16T10:46:14;101341.88;;;14.19;57.42
28448;BME280;15675;52.870;-1.416;2022-09-16T10:48:41;101347.88;;;14.69;58.17
28448;BME280;15675;52.870;-1.416;2022-09-16T10:51:20;101348.81;;;14.29;56.77
28448;BME280;15675;52.870;-1.416;2022-09-16T10:53:51;101353.19;;;13.90;57.37
28448;BME280;15675;52.870;-1.416;2022-09-16T10:56:20;101348.81;;;14.38;56.38
28448;BME280;15675;52.870;-1.416;2022-09-16T10:58:46;101355.72;;;14.64;55.71
28448;BME280;15675;52.870;-1.416;2022-09-16T11:07:00;101351.41;;;14.43;56.14
28448;BME280;15675;52.870;-1.416;2022-09-16T11:17:44;101349.66;;;14.48;55.45
28448;BME280;15675;52.870;-1.416;2022-09-16T11:22:49;101355.72;;;14.52;54.65
28448;BME280;15675;52.870;-1.416;2022-09-16T11:30:48;101358.31;;;14.69;53.98
28448;BME280;15675;52.870;-1.416;2022-09-16T11:34:21;101356.50;;;14.95;54.45
28448;BME280;15675;52.870;-1.416;2022-09-16T11:36:36;101357.44;;;14.65;53.89
28448;BME280;15675;52.870;-1.416;2022-09-16T11:42:07;101352.28;;;14.36;55.86
28448;BME280;15675;52.870;-1.416;2022-09-16T11:44:50;101355.69;;;14.72;55.34
28448;BME280;15675;52.870;-1.416;2022-09-16T11:50:29;101352.94;;;15.07;53.50
28448;BME280;15675;52.870;-1.416;2022-09-16T11:55:43;101360.84;;;14.93;52.39
28448;BME280;15675;52.870;-1.416;2022-09-16T12:00:51;101358.31;;;14.78;53.74
28448;BME280;15675;52.870;-1.416;2022-09-16T12:03:25;101362.53;;;15.00;52.55
28448;BME280;15675;52.870;-1.416;2022-09-16T12:05:58;101369.38;;;15.32;53.17
28448;BME280;15675;52.870;-1.416;2022-09-16T12:08:53;101377.91;;;15.61;53.39
28448;BME280;15675;52.870;-1.416;2022-09-16T12:11:34;101374.59;;;15.35;53.18
28448;BME280;15675;52.870;-1.416;2022-09-16T12:16:49;101369.63;;;14.78;53.06
28448;BME280;15675;52.870;-1.416;2022-09-16T12:19:23;101372.19;;;14.84;53.19
28448;BME280;15675;52.870;-1.416;2022-09-16T12:21:54;101377.38;;;14.98;54.35
28448;BME280;15675;52.870;-1.416;2022-09-16T12:24:44;101376.25;;;15.47;52.74
28448;BME280;15675;52.870;-1.416;2022-09-16T12:30:18;101381.66;;;15.13;51.38
28448;BME280;15675;52.870;-1.416;2022-09-16T12:38:20;101367.00;;;14.78;52.35
28448;BME280;15675;52.870;-1.416;2022-09-16T12:49:50;101378.28;;;14.93;53.30
28448;BME280;15675;52.870;-1.416;2022-09-16T13:04:03;101383.44;;;15.08;51.84
28448;BME280;15675;52.870;-1.416;2022-09-16T13:06:35;101382.66;;;14.91;51.54
28448;BME280;15675;52.870;-1.416;2022-09-16T13:09:29;101380.88;;;14.94;52.87
28448;BME280;15675;52.870;-1.416;2022-09-16T13:12:02;101381.00;;;14.48;52.37
28448;BME280;15675;52.870;-1.416;2022-09-16T13:14:32;101387.94;;;14.50;51.95
28448;BME280;15675;52.870;-1.416;2022-09-16T13:17:00;101379.91;;;15.15;51.70
28448;BME280;15675;52.870;-1.416;2022-09-16T13:19:44;101380.78;;;15.14;50.60
28448;BME280;15675;52.870;-1.416;2022-09-16T13:22:14;101394.59;;;15.41;49.67
28448;BME280;15675;52.870;-1.416;2022-09-16T13:24:45;101392.09;;;15.13;49.52
28448;BME280;15675;52.870;-1.416;2022-09-16T13:27:36;101392.13;;;15.15;49.56
28448;BME280;15675;52.870;-1.416;2022-09-16T13:30:12;101388.81;;;14.56;49.39
28448;BME280;15675;52.870;-1.416;2022-09-16T13:32:44;101379.22;;;14.69;49.41
28448;BME280;15675;52.870;-1.416;2022-09-16T13:35:36;101388.78;;;14.74;49.22
28448;BME280;15675;52.870;-1.416;2022-09-16T13:38:19;101384.38;;;14.89;48.57
28448;BME280;15675;52.870;-1.416;2022-09-16T13:43:31;101383.44;;;15.08;49.69
28448;BME280;15675;52.870;-1.416;2022-09-16T13:46:08;101400.13;;;14.55;49.90
28448;BME280;15675;52.870;-1.416;2022-09-16T13:48:39;101393.16;;;14.64;49.92
28448;BME280;15675;52.870;-1.416;2022-09-16T13:51:09;101377.31;;;15.12;49.67
28448;BME280;15675;52.870;-1.416;2022-09-16T13:53:44;101393.72;;;15.45;50.50
28448;BME280;15675;52.870;-1.416;2022-09-16T13:59:19;101384.28;;;15.15;47.68
28448;BME280;15675;52.870;-1.416;2022-09-16T14:07:27;101387.78;;;15.05;47.12
28448;BME280;15675;52.870;-1.416;2022-09-16T14:10:04;101395.34;;;15.59;47.37
28448;BME280;15675;52.870;-1.416;2022-09-16T14:15:10;101381.34;;;15.72;46.99
28448;BME280;15675;52.870;-1.416;2022-09-16T14:17:45;101395.81;;;16.19;46.81
28448;BME280;15675;52.870;-1.416;2022-09-16T14:20:14;101381.88;;;16.14;46.62
28448;BME280;15675;52.870;-1.416;2022-09-16T14:22:40;101382.00;;;16.03;46.89
28448;BME280;15675;52.870;-1.416;2022-09-16T14:25:25;101396.44;;;15.27;46.81
28448;BME280;15675;52.870;-1.416;2022-09-16T14:27:51;101399.06;;;15.22;47.74
28448;BME280;15675;52.870;-1.416;2022-09-16T14:30:18;101399.03;;;15.30;47.64
28448;BME280;15675;52.870;-1.416;2022-09-16T14:32:45;101400.72;;;15.39;47.32
28448;BME280;15675;52.870;-1.416;2022-09-16T14:35:22;101412.88;;;15.46;47.53
28448;BME280;15675;52.870;-1.416;2022-09-16T14:37:52;101402.25;;;15.75;48.74
28448;BME280;15675;52.870;-1.416;2022-09-16T14:40:21;101400.59;;;15.59;47.57
28448;BME280;15675;52.870;-1.416;2022-09-16T14:43:04;101397.66;;;16.08;45.31
28448;BME280;15675;52.870;-1.416;2022-09-16T14:45:30;101402.91;;;16.07;45.05
28448;BME280;15675;52.870;-1.416;2022-09-16T14:48:00;101395.25;;;15.79;43.69
28448;BME280;15675;52.870;-1.416;2022-09-16T14:50:34;101404.22;;;15.34;43.64
28448;BME280;15675;52.870;-1.416;2022-09-16T14:53:03;101397.16;;;15.53;43.96
28448;BME280;15675;52.870;-1.416;2022-09-16T14:55:34;101409.16;;;15.88;43.90
28448;BME280;15675;52.870;-1.416;2022-09-16T14:58:02;101388.72;;;16.31;43.59
28448;BME280;15675;52.870;-1.416;2022-09-16T15:00:38;101395.63;;;16.39;44.52
28448;BME280;15675;52.870;-1.416;2022-09-16T15:04:08;101403.78;;;16.04;43.88
28448;BME280;15675;52.870;-1.416;2022-09-16T15:06:20;101410.03;;;15.84;43.52
28448;BME280;15675;52.870;-1.416;2022-09-16T15:09:15;101433.75;;;15.58;43.54
28448;BME280;15675;52.870;-1.416;2022-09-16T15:11:49;101416.66;;;14.69;43.99
28448;BME280;15675;52.870;-1.416;2022-09-16T15:14:17;101409.44;;;15.41;44.02
28448;BME280;15675;52.870;-1.416;2022-09-16T15:16:55;101414.66;;;15.42;44.03
28448;BME280;15675;52.870;-1.416;2022-09-16T15:19:28;101430.34;;;15.42;45.16
28448;BME280;15675;52.870;-1.416;2022-09-16T15:21:56;101427.75;;;15.41;45.49